Aviation Digital Data Service (ADDS)

Output produced by METARs form (1201 UTC 29 July 2016)
found at http://www.aviationweather.gov/adds/metars/
 
KIPT 291154Z 27008KT 7SM SCT005 22/19 A2989 RMK AO2 SLP117 60000 T02220194 10222 20206 53019
KIPT 291106Z 26007KT 6SM BR SCT005 21/19 A2988 RMK AO2 T02110189 $
KIPT 291054Z 26008KT 6SM BR SCT008 21/19 A2987 RMK AO2 SLP111 T02110189 $
KIPT 291038Z 27009KT 6SM BR SCT008 21/19 A2987 RMK AO2 T02110189 $
KIPT 290954Z AUTO 26006KT 8SM CLR 21/19 A2985 RMK AO2 SLP104 T02110189 $
KIPT 290942Z AUTO 27007KT 8SM FEW008 21/19 A2984 RMK AO2 T02110189 $
KIPT 290854Z AUTO 27005KT 10SM BKN009 22/19 A2983 RMK AO2 CIG 008V012 SLP098 60000 T02170189 58015 $
KIPT 290842Z AUTO 28005KT 10SM FEW009 22/19 A2983 RMK AO2 T02170189 $
KIPT 290754Z AUTO 00000KT 10SM CLR 22/18 A2985 RMK AO2 SLP104 T02170183 $
KIPT 290654Z AUTO 00000KT 10SM CLR 22/18 A2987 RMK AO2 RAE37 SLP111 P0000 T02170183 $
KIPT 290554Z AUTO 00000KT 10SM -RA FEW120 22/19 A2988 RMK AO2 RAB45 SLP113 P0000 60000 T02220189 10272 20222 55004 $
KIPT 290454Z AUTO 00000KT 10SM FEW110 23/18 A2988 RMK AO2 SLP113 T02280183 403170178 $
KIPT 290354Z AUTO 29005KT 10SM FEW060 FEW100 BKN110 23/18 A2989 RMK AO2 SLP116 T02330178 $
KIPT 290254Z AUTO 26005KT 10SM FEW110 24/17 A2989 RMK AO2 RAE07 SLP117 P0000 60000 T02390172 50014 $
KIPT 290154Z 25006KT 10SM -RA CLR 24/18 A2989 RMK AO2 RAB26 SLP120 P0000 T02390183 $
KIPT 290054Z 26009KT 10SM CLR 26/17 A2986 RMK AO2 SLP108 T02610167 $
KIPT 282354Z 24005KT 10SM FEW080 SCT100 BKN120 28/18 A2985 RMK AO2 SLP105 T02780183 10317 20278 53005 $
KIPT 282254Z 19008KT 10SM SCT110 28/19 A2984 RMK AO2 SLP103 T02830189 $
KIPT 282154Z 00000KT 10SM FEW060 30/19 A2982 RMK AO2 SLP094 T03000189 $
KIPT 282054Z 13003KT 10SM CLR 31/18 A2984 RMK AO2 SLP099 T03060183 56009
KIPT 281954Z 15003KT 10SM CLR 31/17 A2984 RMK AO2 SLP101 T03110172
KIPT 281854Z 00000KT 10SM CLR 31/17 A2985 RMK AO2 SLP104 T03110167
KIPT 281754Z 21003KT 10SM CLR 31/18 A2986 RMK AO2 SLP108 T03060178 10311 20200 58020
KIPT 281654Z 13005KT 10SM CLR 29/19 A2989 RMK AO2 SLP117 T02940189
KIPT 281554Z 12004KT 10SM CLR 28/17 A2991 RMK AO2 SLP124 T02830172
KIPT 281454Z 26003KT 10SM CLR 26/16 A2992 RMK AO2 SLP128 T02610161 58006
KIPT 281354Z 25005KT 10SM CLR 24/16 A2994 RMK AO2 SLP133 T02390161
KIPT 281254Z 25005KT 10SM CLR 22/16 A2994 RMK AO2 SLP135 T02220161
KIPT 281154Z 00000KT 10SM CLR 20/16 A2994 RMK AO2 SLP135 T02000161 10200 20178 51005
KIPT 281054Z 34004KT 10SM CLR 18/15 A2994 RMK AO2 SLP133 T01780150
KIPT 280954Z AUTO 00000KT 10SM CLR 18/15 A2993 RMK AO2 SLP131 T01780150
KIPT 280854Z AUTO 32003KT 10SM CLR 18/16 A2993 RMK AO2 SLP130 T01830156 50001
KIPT 280754Z AUTO 31003KT 10SM CLR 18/16 A2993 RMK AO2 SLP130 T01830156
KIPT 280654Z AUTO 00000KT 10SM CLR 19/16 A2993 RMK AO2 SLP131 T01940156
KIPT 280554Z AUTO 33003KT 10SM CLR 19/16 A2992 RMK AO2 SLP129 T01940161 10300 20194 50003
KIPT 280454Z AUTO 32003KT 10SM CLR 21/16 A2993 RMK AO2 SLP129 T02060161 403330172
KIPT 280354Z AUTO 00000KT 10SM CLR 22/16 A2992 RMK AO2 SLP126 T02220161
KIPT 280254Z AUTO 00000KT 10SM CLR 23/17 A2992 RMK AO2 SLP126 T02280167 51008
KIPT 280154Z 19003KT 10SM CLR 26/16 A2991 RMK AO2 SLP125 T02560161
KIPT 280054Z 00000KT 10SM CLR 29/14 A2990 RMK AO2 SLP121 T02890144